createdAt,value
2017-10-21T00:01:00.112Z,13.66
2017-10-21T00:03:26.999Z,13.73
2017-10-21T00:05:54.003Z,14.06
2017-10-21T00:08:20.819Z,13.88
2017-10-21T00:10:47.673Z,13.45
2017-10-21T00:13:14.489Z,13.42
2017-10-21T00:15:41.354Z,13.94
2017-10-21T00:18:08.176Z,13.69
2017-10-21T00:20:35.024Z,13.94
2017-10-21T00:23:01.838Z,13.95
2017-10-21T00:25:28.654Z,13.40
2017-10-21T00:27:55.484Z,13.44
2017-10-21T00:30:22.351Z,13.51
2017-10-21T00:32:49.205Z,13.00
2017-10-21T00:35:16.085Z,12.93
2017-10-21T00:37:42.903Z,12.81
2017-10-21T00:40:09.819Z,12.94
2017-10-21T00:42:36.700Z,13.45
2017-10-21T00:45:03.594Z,13.52
2017-10-21T00:47:30.447Z,13.66
2017-10-21T00:49:57.367Z,13.33
2017-10-21T00:52:24.993Z,13.09
2017-10-21T00:54:51.887Z,13.08
2017-10-21T00:57:18.782Z,13.18
2017-10-21T00:59:45.687Z,13.06
2017-10-21T01:02:12.601Z,13.06
2017-10-21T01:04:40.254Z,13.18
2017-10-21T01:07:07.115Z,13.13
2017-10-21T01:09:34.103Z,13.26
2017-10-21T01:12:01.007Z,12.95
2017-10-21T01:14:27.851Z,12.75
2017-10-21T01:16:54.695Z,12.96
2017-10-21T01:19:22.308Z,13.21
2017-10-21T01:21:49.200Z,13.17
2017-10-21T01:24:16.151Z,13.25
2017-10-21T01:26:43.091Z,13.16
2017-10-21T01:29:10.031Z,13.54
2017-10-21T01:31:37.657Z,13.26
2017-10-21T01:34:04.597Z,12.92
2017-10-21T01:36:31.508Z,13.11
2017-10-21T01:38:58.406Z,13.24
2017-10-21T01:41:25.333Z,13.01
2017-10-21T01:43:52.326Z,13.09
2017-10-21T01:46:19.228Z,12.85
2017-10-21T01:48:46.125Z,13.07
2017-10-21T01:51:13.058Z,12.97
2017-10-21T01:53:39.932Z,13.26
2017-10-21T01:56:06.878Z,13.35
2017-10-21T01:58:33.765Z,13.12
2017-10-21T02:01:00.640Z,13.12
2017-10-21T02:03:27.585Z,13.20
2017-10-21T02:05:55.426Z,13.16
2017-10-21T02:08:22.415Z,13.25
2017-10-21T02:10:49.303Z,12.83
2017-10-21T02:13:16.157Z,13.29
2017-10-21T02:15:43.072Z,12.91
2017-10-21T02:18:09.962Z,13.46
2017-10-21T02:20:36.873Z,13.52
2017-10-21T02:23:04.503Z,13.30
2017-10-21T02:25:31.441Z,13.05
2017-10-21T02:27:58.338Z,13.55
2017-10-21T02:30:25.259Z,13.36
2017-10-21T02:32:52.124Z,13.12
2017-10-21T02:35:19.603Z,13.00
2017-10-21T02:37:47.350Z,12.90
2017-10-21T02:40:14.981Z,13.06
2017-10-21T02:42:41.956Z,13.15
2017-10-21T02:45:08.909Z,13.31
2017-10-21T02:47:35.810Z,13.17
2017-10-21T02:50:02.713Z,13.09
2017-10-21T02:52:29.619Z,13.37
2017-10-21T02:54:56.519Z,13.02
2017-10-21T02:57:24.096Z,13.39
2017-10-21T02:59:51.753Z,13.32
2017-10-21T03:02:18.792Z,13.29
2017-10-21T03:04:45.674Z,13.30
2017-10-21T03:07:12.571Z,13.49
2017-10-21T03:09:40.156Z,13.61
2017-10-21T03:12:07.753Z,13.18
2017-10-21T03:14:34.664Z,13.64
2017-10-21T03:17:01.469Z,13.64
2017-10-21T03:19:28.355Z,13.56
2017-10-21T03:21:55.219Z,13.51
2017-10-21T03:24:22.084Z,13.56
2017-10-21T03:26:48.936Z,13.50
2017-10-21T03:29:15.769Z,13.36
2017-10-21T03:31:42.692Z,13.47
2017-10-21T03:34:10.339Z,13.55
2017-10-21T03:36:37.271Z,13.57
2017-10-21T03:39:04.843Z,13.72
2017-10-21T03:41:31.676Z,13.65
2017-10-21T03:43:58.573Z,13.41
2017-10-21T03:46:25.434Z,13.62
2017-10-21T03:48:53.045Z,13.66
2017-10-21T03:51:19.879Z,13.31
2017-10-21T03:53:46.758Z,13.58
2017-10-21T03:56:13.636Z,13.56
2017-10-21T03:58:40.496Z,13.77
2017-10-21T04:01:07.366Z,13.51
2017-10-21T04:03:34.205Z,13.70
2017-10-21T04:06:01.052Z,13.76
2017-10-21T04:08:27.927Z,13.59
2017-10-21T04:10:54.822Z,13.67
2017-10-21T04:13:21.653Z,13.71
2017-10-21T04:15:48.556Z,13.74
2017-10-21T04:18:15.488Z,13.60
2017-10-21T04:20:42.379Z,13.78
2017-10-21T04:23:09.323Z,13.70
2017-10-21T04:25:36.194Z,13.69
2017-10-21T04:28:03.083Z,13.70
2017-10-21T04:30:29.898Z,13.46
2017-10-21T04:32:56.740Z,13.53
2017-10-21T04:35:23.580Z,13.66
2017-10-21T04:37:50.471Z,13.64
2017-10-21T04:40:17.449Z,13.64
2017-10-21T04:42:44.393Z,13.52
2017-10-21T04:45:11.308Z,13.60
2017-10-21T04:47:38.168Z,13.45
2017-10-21T04:50:04.980Z,13.55
2017-10-21T04:52:31.813Z,13.29
2017-10-21T04:54:59.426Z,13.41
2017-10-21T04:57:27.087Z,13.14
2017-10-21T04:59:53.915Z,13.17
2017-10-21T05:02:21.564Z,13.05
2017-10-21T05:04:48.389Z,13.01
2017-10-21T05:07:15.330Z,13.34
2017-10-21T05:09:42.987Z,12.99
2017-10-21T05:12:09.841Z,13.10
2017-10-21T05:14:36.696Z,12.94
2017-10-21T05:17:03.622Z,13.05
2017-10-21T05:19:30.472Z,13.15
2017-10-21T05:21:57.303Z,13.21
2017-10-21T05:24:24.192Z,12.90
2017-10-21T05:26:51.135Z,12.91
2017-10-21T05:29:18.766Z,12.95
2017-10-21T05:31:45.660Z,12.86
2017-10-21T05:34:12.475Z,13.11
2017-10-21T05:36:39.327Z,12.90
2017-10-21T05:39:06.134Z,13.17
2017-10-21T05:41:32.940Z,13.23
2017-10-21T05:43:59.783Z,13.25
2017-10-21T05:46:27.357Z,13.08
2017-10-21T05:48:54.915Z,13.08
2017-10-21T05:51:21.757Z,12.93
2017-10-21T05:53:48.644Z,13.13
2017-10-21T05:56:15.509Z,12.88
2017-10-21T05:58:42.383Z,13.07
2017-10-21T06:01:09.983Z,12.84
2017-10-21T06:03:36.867Z,12.79
2017-10-21T06:06:03.736Z,13.08
2017-10-21T06:08:30.635Z,12.88
2017-10-21T06:10:57.465Z,12.88
2017-10-21T06:13:24.446Z,12.98
2017-10-21T06:15:51.334Z,13.03
2017-10-21T06:18:18.994Z,12.96
2017-10-21T06:20:45.891Z,12.95
2017-10-21T06:23:12.761Z,13.06
2017-10-21T06:25:39.575Z,12.86
2017-10-21T06:28:06.408Z,12.99
2017-10-21T06:30:33.291Z,12.93
2017-10-21T06:33:00.114Z,12.96
2017-10-21T06:35:27.048Z,13.12
2017-10-21T06:37:53.884Z,12.93
2017-10-21T06:40:20.777Z,13.03
2017-10-21T06:42:48.431Z,13.09
2017-10-21T06:45:15.356Z,13.15
2017-10-21T06:47:42.960Z,13.22
2017-10-21T06:50:09.864Z,13.29
2017-10-21T06:52:36.763Z,13.32
2017-10-21T06:55:03.564Z,13.41
2017-10-21T06:57:30.414Z,13.32
2017-10-21T06:59:57.458Z,13.25
2017-10-21T07:02:24.302Z,13.29
2017-10-21T07:04:51.171Z,13.43
2017-10-21T07:07:18.034Z,13.47
2017-10-21T07:09:44.919Z,13.41
2017-10-21T07:12:11.778Z,13.52
2017-10-21T07:14:38.697Z,13.56
2017-10-21T07:17:05.538Z,13.65
2017-10-21T07:19:32.432Z,13.66
2017-10-21T07:21:59.255Z,13.77
2017-10-21T07:24:26.923Z,13.81
2017-10-21T07:26:53.835Z,13.85
2017-10-21T07:29:20.755Z,13.91
2017-10-21T07:31:47.593Z,13.89
2017-10-21T07:34:14.460Z,13.96
2017-10-21T07:36:41.328Z,13.97
2017-10-21T07:39:08.188Z,13.93
2017-10-21T07:41:35.037Z,13.98
2017-10-21T07:44:01.880Z,14.02
2017-10-21T07:46:28.749Z,14.10
2017-10-21T07:48:55.586Z,14.07
2017-10-21T07:51:22.408Z,14.20
2017-10-21T07:53:50.022Z,14.15
2017-10-21T07:56:16.866Z,14.12
2017-10-21T07:58:43.720Z,14.27
2017-10-21T08:01:11.312Z,14.22
2017-10-21T08:03:38.223Z,14.12
2017-10-21T08:06:05.057Z,14.18
2017-10-21T08:08:31.925Z,14.05
2017-10-21T08:10:58.775Z,14.09
2017-10-21T08:13:25.637Z,14.15
2017-10-21T08:15:52.515Z,14.13
2017-10-21T08:18:19.407Z,13.97
2017-10-21T08:20:46.279Z,13.99
2017-10-21T08:23:14.548Z,14.08
2017-10-21T08:25:41.401Z,13.96
2017-10-21T08:28:08.256Z,13.76
2017-10-21T08:30:39.062Z,14.01
2017-10-21T08:33:05.943Z,14.01
2017-10-21T08:35:32.805Z,14.07
2017-10-21T08:37:59.624Z,14.08
2017-10-21T08:40:26.467Z,14.11
2017-10-21T08:42:53.376Z,14.02
2017-10-21T08:45:20.344Z,13.69
2017-10-21T08:47:47.236Z,13.70
2017-10-21T08:50:14.110Z,13.96
2017-10-21T08:52:40.971Z,13.92
2017-10-21T08:55:07.793Z,14.07
2017-10-21T08:57:34.655Z,14.16
2017-10-21T09:00:01.543Z,14.14
2017-10-21T09:02:28.329Z,13.94
2017-10-21T09:04:55.141Z,14.11
2017-10-21T09:07:21.976Z,14.04
2017-10-21T09:09:49.560Z,14.17
2017-10-21T09:12:17.151Z,14.25
2017-10-21T09:14:43.993Z,14.29
2017-10-21T09:17:11.572Z,14.22
2017-10-21T09:19:39.142Z,14.34
2017-10-21T09:22:05.959Z,14.40
2017-10-21T09:24:32.838Z,14.29
2017-10-21T09:26:59.684Z,14.41
2017-10-21T09:29:26.504Z,14.46
2017-10-21T09:31:53.340Z,14.53
2017-10-21T09:34:20.915Z,14.53
2017-10-21T09:36:47.753Z,14.59
2017-10-21T09:39:14.599Z,14.64
2017-10-21T09:41:41.432Z,14.65
2017-10-21T09:44:08.253Z,14.63
2017-10-21T09:46:35.120Z,14.73
2017-10-21T09:49:01.976Z,14.73
2017-10-21T09:51:28.816Z,14.80
2017-10-21T09:53:55.659Z,14.87
2017-10-21T09:56:22.479Z,14.92
2017-10-21T09:58:50.063Z,14.89
2017-10-21T10:01:16.880Z,14.95
2017-10-21T10:03:43.763Z,15.02
2017-10-21T10:06:10.621Z,15.04
2017-10-21T10:08:37.464Z,15.03
2017-10-21T10:11:04.314Z,15.11
2017-10-21T10:13:31.184Z,15.09
2017-10-21T10:15:58.007Z,15.09
2017-10-21T10:18:24.988Z,15.13
2017-10-21T10:20:51.788Z,15.17
2017-10-21T10:23:18.612Z,15.16
2017-10-21T10:25:45.474Z,15.14
2017-10-21T10:28:12.276Z,15.18
2017-10-21T10:30:39.089Z,15.20
2017-10-21T10:33:05.893Z,15.22
2017-10-21T10:35:32.763Z,15.25
2017-10-21T10:37:59.582Z,15.25
2017-10-21T10:40:26.395Z,15.26
2017-10-21T10:42:53.982Z,15.27
2017-10-21T10:45:20.807Z,15.33
2017-10-21T10:47:47.655Z,15.31
2017-10-21T10:50:14.465Z,15.37
2017-10-21T10:52:42.075Z,15.42
2017-10-21T10:55:08.913Z,15.49
2017-10-21T10:57:35.735Z,15.48
2017-10-21T11:00:02.612Z,15.47
2017-10-21T11:02:30.193Z,15.52
2017-10-21T11:04:57.064Z,15.48
2017-10-21T11:07:24.710Z,15.50
2017-10-21T11:09:51.580Z,15.49
2017-10-21T11:12:18.409Z,15.56
2017-10-21T11:14:45.224Z,15.63
2017-10-21T11:17:12.827Z,15.75
2017-10-21T11:19:39.684Z,15.77
2017-10-21T11:22:06.490Z,15.82
2017-10-21T11:24:33.352Z,15.80
2017-10-21T11:27:00.256Z,15.82
2017-10-21T11:29:27.144Z,15.79
2017-10-21T11:31:56.182Z,15.89
2017-10-21T11:34:23.125Z,15.95
2017-10-21T11:36:49.982Z,15.96
2017-10-21T11:39:16.799Z,16.01
2017-10-21T11:41:44.370Z,15.98
2017-10-21T11:44:11.241Z,16.00
2017-10-21T11:46:38.834Z,16.10
2017-10-21T11:49:05.725Z,16.18
2017-10-21T11:51:32.572Z,16.29
2017-10-21T11:53:59.452Z,16.34
2017-10-21T11:56:26.289Z,16.34
2017-10-21T11:58:53.164Z,16.38
2017-10-21T12:01:20.274Z,16.44
2017-10-21T12:03:47.149Z,16.46
2017-10-21T12:06:14.729Z,16.47
2017-10-21T12:08:42.325Z,16.49
2017-10-21T12:11:09.275Z,16.46
2017-10-21T12:13:36.102Z,16.50
2017-10-21T12:16:02.978Z,16.55
2017-10-21T12:18:29.793Z,16.47
2017-10-21T12:20:56.637Z,16.50
2017-10-21T12:23:23.457Z,16.61
2017-10-21T12:25:50.307Z,16.53
2017-10-21T12:28:17.163Z,16.69
2017-10-21T12:30:43.965Z,16.78
2017-10-21T12:33:11.523Z,16.76
2017-10-21T12:35:38.332Z,16.69
2017-10-21T12:38:05.179Z,16.76
2017-10-21T12:40:32.066Z,16.73
2017-10-21T12:42:58.917Z,16.83
2017-10-21T12:45:25.732Z,16.95
2017-10-21T12:47:52.537Z,17.07
2017-10-21T12:50:19.433Z,17.33
2017-10-21T12:52:46.278Z,17.44
2017-10-21T12:55:13.137Z,17.39
2017-10-21T12:57:39.965Z,17.41
2017-10-21T13:00:06.772Z,17.44
2017-10-21T13:02:33.614Z,17.48
2017-10-21T13:05:00.463Z,17.43
2017-10-21T13:07:27.293Z,17.39
2017-10-21T13:09:54.867Z,17.40
2017-10-21T13:12:26.933Z,17.41
2017-10-21T13:14:53.805Z,17.41
2017-10-21T13:17:21.373Z,17.39
2017-10-21T13:19:48.195Z,17.38
2017-10-21T13:22:14.993Z,17.36
2017-10-21T13:24:41.857Z,17.37
2017-10-21T13:27:08.673Z,17.42
2017-10-21T13:29:35.489Z,17.39
2017-10-21T13:32:03.068Z,17.40
2017-10-21T13:34:30.677Z,17.47
2017-10-21T13:36:57.560Z,17.47
2017-10-21T13:39:24.403Z,17.44
2017-10-21T13:41:51.272Z,17.37
2017-10-21T13:44:18.109Z,17.42
2017-10-21T13:46:45.022Z,17.42
2017-10-21T13:49:11.897Z,17.50
2017-10-21T13:51:38.713Z,17.36
2017-10-21T13:54:05.548Z,17.38
2017-10-21T13:56:33.208Z,17.38
2017-10-21T13:59:00.796Z,17.38
2017-10-21T14:01:28.348Z,17.46
2017-10-21T14:03:55.180Z,17.40
2017-10-21T14:06:22.795Z,17.33
2017-10-21T14:08:49.663Z,17.22
2017-10-21T14:11:16.558Z,17.27
2017-10-21T14:13:43.423Z,17.24
2017-10-21T14:16:10.303Z,17.26
2017-10-21T14:18:37.176Z,17.20
2017-10-21T14:21:04.045Z,17.20
2017-10-21T14:23:30.896Z,17.29
2017-10-21T14:25:57.742Z,17.29
2017-10-21T14:28:24.558Z,17.36
2017-10-21T14:30:51.530Z,17.33
2017-10-21T14:33:19.125Z,17.23
2017-10-21T14:35:45.985Z,17.33
2017-10-21T14:38:12.818Z,17.20
2017-10-21T14:40:39.745Z,17.18
2017-10-21T14:43:06.590Z,17.11
2017-10-21T14:45:33.455Z,17.08
2017-10-21T14:48:00.398Z,17.08
2017-10-21T14:50:27.979Z,17.06
2017-10-21T14:52:54.810Z,17.06
2017-10-21T14:55:21.723Z,17.01
2017-10-21T14:57:48.577Z,17.01
2017-10-21T15:00:15.436Z,17.00
2017-10-21T15:02:42.345Z,16.98
2017-10-21T15:05:09.219Z,16.98
2017-10-21T15:07:36.808Z,16.94
2017-10-21T15:10:04.353Z,16.97
2017-10-21T15:12:31.197Z,16.97
2017-10-21T15:14:58.100Z,16.96
2017-10-21T15:17:24.952Z,16.92
2017-10-21T15:19:51.794Z,16.85
2017-10-21T15:22:18.611Z,16.85
2017-10-21T15:24:45.512Z,16.83
2017-10-21T15:27:12.508Z,16.83
2017-10-21T15:29:39.408Z,16.81
2017-10-21T15:32:06.258Z,16.77
2017-10-21T15:34:33.101Z,16.74
2017-10-21T15:36:59.984Z,16.75
2017-10-21T15:39:26.887Z,16.77
2017-10-21T15:41:53.681Z,16.74
2017-10-21T15:44:20.582Z,16.66
2017-10-21T15:46:47.456Z,16.67
2017-10-21T15:49:14.278Z,16.65
2017-10-21T15:51:41.837Z,16.67
2017-10-21T15:54:08.674Z,16.59
2017-10-21T15:56:35.572Z,16.54
2017-10-21T15:59:03.138Z,16.50
2017-10-21T16:01:30.053Z,16.46
2017-10-21T16:03:56.902Z,16.42
2017-10-21T16:06:23.763Z,16.43
2017-10-21T16:08:50.765Z,16.41
2017-10-21T16:11:17.687Z,16.41
2017-10-21T16:13:44.584Z,16.39
2017-10-21T16:16:11.596Z,16.36
2017-10-21T16:18:39.351Z,16.31
2017-10-21T16:21:06.189Z,16.30
2017-10-21T16:23:33.032Z,16.30
2017-10-21T16:25:59.885Z,16.27
2017-10-21T16:28:26.705Z,16.27
2017-10-21T16:30:54.301Z,16.27
2017-10-21T16:33:21.969Z,16.29
2017-10-21T16:35:48.783Z,16.27
2017-10-21T16:38:15.638Z,16.17
2017-10-21T16:52:55.471Z,16.72
2017-10-21T16:55:22.329Z,16.95
2017-10-21T16:57:49.201Z,17.02
2017-10-21T17:00:16.071Z,17.08
2017-10-21T17:02:42.964Z,16.65
2017-10-21T17:05:09.834Z,17.12
2017-10-21T17:07:37.529Z,16.99
2017-10-21T17:10:05.119Z,17.09
2017-10-21T17:12:32.024Z,16.34
2017-10-21T17:14:58.851Z,16.77
2017-10-21T17:17:25.733Z,16.59
2017-10-21T17:19:52.598Z,16.51
2017-10-21T17:22:19.502Z,16.56
2017-10-21T17:24:46.342Z,16.14
2017-10-21T17:27:13.352Z,16.51
2017-10-21T17:29:40.209Z,16.35
2017-10-21T17:32:07.798Z,15.77
2017-10-21T17:34:34.763Z,16.52
2017-10-21T17:37:01.635Z,15.76
2017-10-21T17:39:28.468Z,16.49
2017-10-21T17:41:56.032Z,16.39
2017-10-21T17:44:22.829Z,15.26
2017-10-21T17:46:49.699Z,15.44
2017-10-21T17:49:16.675Z,15.46
2017-10-21T17:51:43.545Z,15.51
2017-10-21T17:54:10.396Z,16.07
2017-10-21T17:56:37.278Z,15.25
2017-10-21T17:59:04.203Z,15.10
2017-10-21T18:01:31.080Z,14.97
2017-10-21T18:03:57.964Z,14.24
2017-10-21T18:06:24.848Z,14.84
2017-10-21T18:08:51.754Z,14.44
2017-10-21T18:11:18.579Z,14.79
2017-10-21T18:13:45.414Z,14.08
2017-10-21T18:16:12.284Z,14.46
2017-10-21T18:18:39.184Z,14.16
2017-10-21T18:21:06.816Z,14.16
2017-10-21T18:23:33.658Z,14.30
2017-10-21T18:26:00.521Z,14.40
2017-10-21T18:28:27.456Z,14.14
2017-10-21T18:30:54.370Z,13.72
2017-10-21T18:33:21.272Z,13.36
2017-10-21T18:35:48.094Z,13.42
2017-10-21T18:38:15.061Z,13.69
2017-10-21T18:40:41.985Z,13.36
2017-10-21T18:43:08.868Z,13.33
2017-10-21T18:45:35.821Z,13.75
2017-10-21T18:48:02.697Z,13.61
2017-10-21T18:50:29.551Z,13.97
2017-10-21T18:52:56.431Z,14.74
2017-10-21T18:55:23.316Z,14.12
2017-10-21T18:57:50.895Z,13.86
2017-10-21T19:00:18.533Z,14.07
2017-10-21T19:02:45.420Z,14.65
2017-10-21T19:05:12.298Z,14.51
2017-10-21T19:07:39.965Z,14.45
2017-10-21T19:10:06.828Z,14.50
2017-10-21T19:12:33.698Z,14.46
2017-10-21T19:15:00.585Z,14.68
2017-10-21T19:17:27.478Z,14.70
2017-10-21T19:19:54.365Z,14.69
2017-10-21T19:22:21.190Z,14.83
2017-10-21T19:24:48.756Z,14.89
2017-10-21T19:27:15.594Z,14.79
2017-10-21T19:29:43.219Z,14.46
2017-10-21T19:43:03.921Z,14.45
2017-10-21T19:45:30.735Z,14.43
2017-10-21T19:47:57.649Z,14.49
2017-10-21T19:50:24.484Z,14.54
2017-10-21T19:52:52.073Z,14.54
2017-10-21T19:55:18.940Z,14.50
2017-10-21T19:57:45.826Z,14.35
2017-10-21T20:00:13.485Z,14.32
2017-10-21T20:02:40.460Z,14.34
2017-10-21T20:05:07.396Z,14.34
2017-10-21T20:07:35.024Z,14.23
2017-10-21T20:10:01.917Z,14.26
2017-10-21T20:12:28.871Z,14.27
2017-10-21T20:14:55.678Z,14.09
2017-10-21T20:17:22.565Z,13.98
2017-10-21T20:19:50.538Z,14.11
2017-10-21T20:22:17.429Z,14.03
2017-10-21T20:24:44.248Z,14.13
2017-10-21T20:27:11.070Z,14.15
2017-10-21T20:29:38.321Z,13.98
2017-10-21T20:32:06.427Z,14.10
2017-10-21T20:34:33.958Z,13.99
2017-10-21T20:37:00.958Z,13.92
2017-10-21T20:39:27.909Z,13.92
2017-10-21T20:41:54.837Z,14.02
2017-10-21T20:44:21.749Z,13.92
2017-10-21T20:46:48.683Z,14.05
2017-10-21T20:49:15.564Z,13.93
2017-10-21T20:51:42.508Z,13.82
2017-10-21T20:54:09.530Z,13.84
2017-10-21T20:56:37.210Z,14.01
2017-10-21T20:59:04.814Z,13.94
2017-10-21T21:01:31.734Z,13.86
2017-10-21T21:03:58.633Z,13.85
2017-10-21T21:06:25.572Z,13.70
2017-10-21T21:08:52.431Z,13.90
2017-10-21T21:11:19.345Z,13.97
2017-10-21T21:13:46.297Z,13.91
2017-10-21T21:16:13.164Z,13.84
2017-10-21T21:18:40.084Z,13.89
2017-10-21T21:21:06.983Z,13.78
2017-10-21T21:23:33.878Z,13.86
2017-10-21T21:26:00.723Z,13.81
2017-10-21T21:28:27.572Z,13.75
2017-10-21T21:30:54.546Z,13.60
2017-10-21T21:33:21.389Z,13.80
2017-10-21T21:35:48.286Z,13.71
2017-10-21T21:38:15.180Z,13.61
2017-10-21T21:40:42.010Z,13.61
2017-10-21T21:43:08.882Z,13.70
2017-10-21T21:45:35.757Z,13.76
2017-10-21T21:48:03.306Z,13.75
2017-10-21T21:50:30.267Z,13.50
2017-10-21T21:52:57.497Z,13.65
2017-10-21T21:55:24.389Z,13.64
2017-10-21T21:57:51.252Z,13.64
2017-10-21T22:00:18.097Z,13.57
2017-10-21T22:02:45.258Z,13.67
2017-10-21T22:05:12.142Z,13.55
2017-10-21T22:07:38.985Z,13.67
2017-10-21T22:10:05.880Z,13.61
2017-10-21T22:12:33.488Z,13.61
2017-10-21T22:15:02.719Z,13.59
2017-10-21T22:17:30.048Z,13.62
2017-10-21T22:19:58.088Z,13.56
2017-10-21T22:22:25.014Z,13.54
2017-10-21T22:24:51.901Z,13.53
2017-10-21T22:27:19.687Z,13.52
2017-10-21T22:29:47.271Z,13.55
2017-10-21T22:32:15.293Z,13.38
2017-10-21T22:34:42.404Z,13.35
2017-10-21T22:37:09.457Z,13.45
2017-10-21T22:39:37.082Z,13.45
2017-10-21T22:42:03.956Z,13.26
2017-10-21T22:44:31.058Z,13.38
2017-10-21T22:46:58.901Z,13.30
2017-10-21T22:49:25.763Z,13.47
2017-10-21T22:51:52.968Z,13.50
2017-10-21T22:54:19.822Z,13.42
2017-10-21T22:56:47.000Z,13.43
2017-10-21T22:59:13.881Z,13.27
2017-10-21T23:01:41.018Z,13.21
2017-10-21T23:04:07.998Z,13.33
2017-10-21T23:06:34.838Z,13.33
2017-10-21T23:09:01.704Z,13.32
2017-10-21T23:11:28.615Z,13.32
2017-10-21T23:13:56.458Z,13.24
2017-10-21T23:16:24.083Z,13.28
2017-10-21T23:18:51.669Z,13.25
2017-10-21T23:21:18.602Z,13.17
2017-10-21T23:23:45.464Z,13.26
2017-10-21T23:26:12.302Z,13.08
2017-10-21T23:28:39.119Z,13.14
2017-10-21T23:31:05.986Z,13.09
2017-10-21T23:33:32.836Z,13.14
2017-10-21T23:36:00.536Z,13.18
2017-10-21T23:38:27.403Z,13.16
2017-10-21T23:40:54.879Z,13.03
2017-10-21T23:43:22.799Z,13.10
2017-10-21T23:45:51.646Z,13.15
2017-10-21T23:48:19.364Z,12.97
2017-10-21T23:50:46.593Z,13.13
2017-10-21T23:53:14.198Z,13.02
2017-10-21T23:55:41.774Z,12.97
2017-10-21T23:58:12.889Z,12.96
